sensor_id;sensor_type;location;lat;lon;timestamp;temperature;humidity
76577;DHT22;65441;44.748;37.600;2023-03-23T00:01:39;10.72;75.70
76577;DHT22;65441;44.748;37.600;2023-03-23T00:04:09;10.66;76.04
76577;DHT22;65441;44.748;37.600;2023-03-23T00:06:39;10.65;75.89
76577;DHT22;65441;44.748;37.600;2023-03-23T00:09:09;10.53;76.70
76577;DHT22;65441;44.748;37.600;2023-03-23T00:11:38;10.52;76.00
76577;DHT22;65441;44.748;37.600;2023-03-23T00:14:08;10.42;76.22
76577;DHT22;65441;44.748;37.600;2023-03-23T00:16:40;10.36;76.96
76577;DHT22;65441;44.748;37.600;2023-03-23T00:19:12;10.44;75.85
76577;DHT22;65441;44.748;37.600;2023-03-23T00:21:43;10.38;76.69
76577;DHT22;65441;44.748;37.600;2023-03-23T00:24:14;10.45;76.44
76577;DHT22;65441;44.748;37.600;2023-03-23T00:26:45;10.38;76.57
76577;DHT22;65441;44.748;37.600;2023-03-23T00:29:16;10.27;77.44
76577;DHT22;65441;44.748;37.600;2023-03-23T00:31:46;10.37;76.53
76577;DHT22;65441;44.748;37.600;2023-03-23T00:34:19;10.33;77.15
76577;DHT22;65441;44.748;37.600;2023-03-23T00:36:49;10.29;76.41
76577;DHT22;65441;44.748;37.600;2023-03-23T00:39:20;10.35;76.09
76577;DHT22;65441;44.748;37.600;2023-03-23T00:41:52;10.43;76.51
76577;DHT22;65441;44.748;37.600;2023-03-23T00:44:21;10.48;76.68
76577;DHT22;65441;44.748;37.600;2023-03-23T00:46:50;10.54;75.90
76577;DHT22;65441;44.748;37.600;2023-03-23T00:49:22;10.49;77.21
76577;DHT22;65441;44.748;37.600;2023-03-23T00:51:53;10.53;76.24
76577;DHT22;65441;44.748;37.600;2023-03-23T00:54:23;10.52;75.81
76577;DHT22;65441;44.748;37.600;2023-03-23T00:56:53;10.50;77.05
76577;DHT22;65441;44.748;37.600;2023-03-23T00:59:22;10.49;77.13
76577;DHT22;65441;44.748;37.600;2023-03-23T01:01:52;10.48;76.98
76577;DHT22;65441;44.748;37.600;2023-03-23T01:04:22;10.51;76.91
76577;DHT22;65441;44.748;37.600;2023-03-23T01:06:51;10.56;76.04
76577;DHT22;65441;44.748;37.600;2023-03-23T01:09:20;10.38;77.17
76577;DHT22;65441;44.748;37.600;2023-03-23T01:11:50;10.48;76.73
76577;DHT22;65441;44.748;37.600;2023-03-23T01:14:19;10.56;75.75
76577;DHT22;65441;44.748;37.600;2023-03-23T01:16:51;10.54;76.51
76577;DHT22;65441;44.748;37.600;2023-03-23T01:19:21;10.41;77.60
76577;DHT22;65441;44.748;37.600;2023-03-23T01:21:50;10.44;77.13
76577;DHT22;65441;44.748;37.600;2023-03-23T01:24:19;10.41;77.18
76577;DHT22;65441;44.748;37.600;2023-03-23T01:26:48;10.40;77.30
76577;DHT22;65441;44.748;37.600;2023-03-23T01:29:17;10.41;76.98
76577;DHT22;65441;44.748;37.600;2023-03-23T01:31:46;10.23;77.45
76577;DHT22;65441;44.748;37.600;2023-03-23T01:34:15;10.10;77.72
76577;DHT22;65441;44.748;37.600;2023-03-23T01:36:46;10.03;77.95
76577;DHT22;65441;44.748;37.600;2023-03-23T01:39:15;10.03;78.43
76577;DHT22;65441;44.748;37.600;2023-03-23T01:41:43;10.01;78.61
76577;DHT22;65441;44.748;37.600;2023-03-23T01:47:22;9.97;77.93
76577;DHT22;65441;44.748;37.600;2023-03-23T01:49:55;9.92;78.71
76577;DHT22;65441;44.748;37.600;2023-03-23T01:52:26;9.93;78.03
76577;DHT22;65441;44.748;37.600;2023-03-23T01:55:03;9.86;78.28
76577;DHT22;65441;44.748;37.600;2023-03-23T01:57:33;9.84;78.10
76577;DHT22;65441;44.748;37.600;2023-03-23T02:00:06;9.80;78.54
76577;DHT22;65441;44.748;37.600;2023-03-23T02:02:43;9.72;78.94
76577;DHT22;65441;44.748;37.600;2023-03-23T02:05:20;9.66;79.01
76577;DHT22;65441;44.748;37.600;2023-03-23T02:07:52;9.60;78.81
76577;DHT22;65441;44.748;37.600;2023-03-23T02:10:21;9.64;79.70
76577;DHT22;65441;44.748;37.600;2023-03-23T02:12:50;9.53;78.92
76577;DHT22;65441;44.748;37.600;2023-03-23T02:15:20;9.44;79.72
76577;DHT22;65441;44.748;37.600;2023-03-23T02:17:54;9.35;80.25
76577;DHT22;65441;44.748;37.600;2023-03-23T02:20:48;9.42;79.47
76577;DHT22;65441;44.748;37.600;2023-03-23T02:26:43;9.45;78.80
76577;DHT22;65441;44.748;37.600;2023-03-23T02:29:35;9.45;79.31
76577;DHT22;65441;44.748;37.600;2023-03-23T02:32:16;9.33;80.06
76577;DHT22;65441;44.748;37.600;2023-03-23T02:34:55;9.44;79.12
76577;DHT22;65441;44.748;37.600;2023-03-23T02:37:30;9.49;80.16
76577;DHT22;65441;44.748;37.600;2023-03-23T02:40:04;9.60;78.24
76577;DHT22;65441;44.748;37.600;2023-03-23T02:42:37;9.66;79.45
76577;DHT22;65441;44.748;37.600;2023-03-23T02:45:10;9.63;77.97
76577;DHT22;65441;44.748;37.600;2023-03-23T02:47:41;9.70;79.83
76577;DHT22;65441;44.748;37.600;2023-03-23T02:50:20;9.70;79.37
76577;DHT22;65441;44.748;37.600;2023-03-23T02:52:50;9.65;79.74
76577;DHT22;65441;44.748;37.600;2023-03-23T02:55:22;9.59;79.45
76577;DHT22;65441;44.748;37.600;2023-03-23T02:57:53;9.53;79.56
76577;DHT22;65441;44.748;37.600;2023-03-23T03:00:23;9.47;80.03
76577;DHT22;65441;44.748;37.600;2023-03-23T03:02:53;9.50;80.40
76577;DHT22;65441;44.748;37.600;2023-03-23T03:05:33;9.55;80.30
76577;DHT22;65441;44.748;37.600;2023-03-23T03:08:13;9.66;80.23
76577;DHT22;65441;44.748;37.600;2023-03-23T03:10:50;9.77;79.12
76577;DHT22;65441;44.748;37.600;2023-03-23T03:13:33;9.98;78.94
76577;DHT22;65441;44.748;37.600;2023-03-23T03:16:10;10.07;78.02
76577;DHT22;65441;44.748;37.600;2023-03-23T03:18:46;10.20;77.96
76577;DHT22;65441;44.748;37.600;2023-03-23T03:21:19;10.29;77.72
76577;DHT22;65441;44.748;37.600;2023-03-23T03:23:56;10.34;77.91
76577;DHT22;65441;44.748;37.600;2023-03-23T03:26:29;10.37;77.32
76577;DHT22;65441;44.748;37.600;2023-03-23T03:29:12;10.41;77.08
76577;DHT22;65441;44.748;37.600;2023-03-23T03:31:46;10.46;76.96
76577;DHT22;65441;44.748;37.600;2023-03-23T03:34:16;10.46;76.91
76577;DHT22;65441;44.748;37.600;2023-03-23T03:36:51;10.48;76.76
76577;DHT22;65441;44.748;37.600;2023-03-23T03:39:22;10.52;76.27
76577;DHT22;65441;44.748;37.600;2023-03-23T03:41:52;10.52;76.44
76577;DHT22;65441;44.748;37.600;2023-03-23T03:44:21;10.57;76.47
76577;DHT22;65441;44.748;37.600;2023-03-23T03:46:50;10.56;76.29
76577;DHT22;65441;44.748;37.600;2023-03-23T03:49:19;10.59;76.21
76577;DHT22;65441;44.748;37.600;2023-03-23T03:51:51;10.63;76.29
76577;DHT22;65441;44.748;37.600;2023-03-23T03:54:24;10.65;75.97
76577;DHT22;65441;44.748;37.600;2023-03-23T03:56:54;10.65;75.91
76577;DHT22;65441;44.748;37.600;2023-03-23T03:59:43;10.70;75.66
76577;DHT22;65441;44.748;37.600;2023-03-23T04:02:42;10.72;75.50
76577;DHT22;65441;44.748;37.600;2023-03-23T04:05:13;10.75;75.61
76577;DHT22;65441;44.748;37.600;2023-03-23T04:07:45;10.81;75.53
76577;DHT22;65441;44.748;37.600;2023-03-23T04:10:20;10.84;75.43
76577;DHT22;65441;44.748;37.600;2023-03-23T04:12:54;10.87;75.29
76577;DHT22;65441;44.748;37.600;2023-03-23T04:15:44;10.92;75.06
76577;DHT22;65441;44.748;37.600;2023-03-23T04:18:14;10.95;74.91
76577;DHT22;65441;44.748;37.600;2023-03-23T04:20:47;11.02;74.44
76577;DHT22;65441;44.748;37.600;2023-03-23T04:23:20;11.07;74.40
76577;DHT22;65441;44.748;37.600;2023-03-23T04:25:51;11.12;74.09
76577;DHT22;65441;44.748;37.600;2023-03-23T04:28:25;11.19;74.20
76577;DHT22;65441;44.748;37.600;2023-03-23T04:31:15;11.24;74.18
76577;DHT22;65441;44.748;37.600;2023-03-23T04:33:47;11.23;73.95
76577;DHT22;65441;44.748;37.600;2023-03-23T04:36:16;11.31;74.40
76577;DHT22;65441;44.748;37.600;2023-03-23T04:38:57;11.38;73.61
76577;DHT22;65441;44.748;37.600;2023-03-23T04:41:27;11.44;72.99
76577;DHT22;65441;44.748;37.600;2023-03-23T04:44:15;11.45;73.11
76577;DHT22;65441;44.748;37.600;2023-03-23T04:46:54;11.58;73.15
76577;DHT22;65441;44.748;37.600;2023-03-23T04:49:24;11.66;72.64
76577;DHT22;65441;44.748;37.600;2023-03-23T04:52:04;11.82;73.29
76577;DHT22;65441;44.748;37.600;2023-03-23T04:54:47;11.90;71.84
76577;DHT22;65441;44.748;37.600;2023-03-23T04:57:16;11.94;71.14
76577;DHT22;65441;44.748;37.600;2023-03-23T05:00:00;11.93;71.45
76577;DHT22;65441;44.748;37.600;2023-03-23T05:02:40;12.05;71.84
76577;DHT22;65441;44.748;37.600;2023-03-23T05:05:11;12.13;71.05
76577;DHT22;65441;44.748;37.600;2023-03-23T05:07:41;12.23;70.40
76577;DHT22;65441;44.748;37.600;2023-03-23T05:10:12;12.43;71.28
76577;DHT22;65441;44.748;37.600;2023-03-23T05:12:42;12.60;71.61
76577;DHT22;65441;44.748;37.600;2023-03-23T05:15:13;12.66;70.83
76577;DHT22;65441;44.748;37.600;2023-03-23T05:17:44;12.82;72.44
76577;DHT22;65441;44.748;37.600;2023-03-23T05:20:17;12.96;72.16
76577;DHT22;65441;44.748;37.600;2023-03-23T05:22:53;13.20;71.47
76577;DHT22;65441;44.748;37.600;2023-03-23T05:25:31;13.50;71.71
76577;DHT22;65441;44.748;37.600;2023-03-23T05:28:08;13.60;69.57
76577;DHT22;65441;44.748;37.600;2023-03-23T05:30:55;13.64;69.23
76577;DHT22;65441;44.748;37.600;2023-03-23T05:33:29;13.71;67.36
76577;DHT22;65441;44.748;37.600;2023-03-23T05:36:12;13.90;67.96
76577;DHT22;65441;44.748;37.600;2023-03-23T05:39:02;13.89;67.18
76577;DHT22;65441;44.748;37.600;2023-03-23T05:41:51;13.99;68.95
76577;DHT22;65441;44.748;37.600;2023-03-23T05:44:21;14.00;68.26
76577;DHT22;65441;44.748;37.600;2023-03-23T05:46:53;14.00;66.61
76577;DHT22;65441;44.748;37.600;2023-03-23T05:49:22;14.06;65.27
76577;DHT22;65441;44.748;37.600;2023-03-23T05:51:51;14.20;66.06
76577;DHT22;65441;44.748;37.600;2023-03-23T05:54:21;14.18;64.18
76577;DHT22;65441;44.748;37.600;2023-03-23T05:56:59;14.25;64.56
76577;DHT22;65441;44.748;37.600;2023-03-23T05:59:49;14.33;65.67
76577;DHT22;65441;44.748;37.600;2023-03-23T06:02:22;14.32;64.28
76577;DHT22;65441;44.748;37.600;2023-03-23T06:04:54;14.37;64.54
76577;DHT22;65441;44.748;37.600;2023-03-23T06:07:29;14.39;63.56
76577;DHT22;65441;44.748;37.600;2023-03-23T06:10:01;14.53;62.48
76577;DHT22;65441;44.748;37.600;2023-03-23T06:12:39;14.54;62.94
76577;DHT22;65441;44.748;37.600;2023-03-23T06:15:20;14.59;62.96
76577;DHT22;65441;44.748;37.600;2023-03-23T06:18:01;14.73;63.15
76577;DHT22;65441;44.748;37.600;2023-03-23T06:20:41;14.78;62.92
76577;DHT22;65441;44.748;37.600;2023-03-23T06:23:23;14.83;61.77
76577;DHT22;65441;44.748;37.600;2023-03-23T06:25:54;14.87;61.71
76577;DHT22;65441;44.748;37.600;2023-03-23T06:28:26;15.07;62.73
76577;DHT22;65441;44.748;37.600;2023-03-23T06:30:58;15.21;62.13
76577;DHT22;65441;44.748;37.600;2023-03-23T06:33:30;15.41;62.57
76577;DHT22;65441;44.748;37.600;2023-03-23T06:36:23;15.49;60.45
76577;DHT22;65441;44.748;37.600;2023-03-23T06:39:12;15.72;60.58
76577;DHT22;65441;44.748;37.600;2023-03-23T06:42:09;15.91;59.35
76577;DHT22;65441;44.748;37.600;2023-03-23T06:44:46;16.05;59.61
76577;DHT22;65441;44.748;37.600;2023-03-23T06:47:16;16.12;58.34
76577;DHT22;65441;44.748;37.600;2023-03-23T06:49:49;16.11;58.06
76577;DHT22;65441;44.748;37.600;2023-03-23T06:52:26;15.86;58.40
76577;DHT22;65441;44.748;37.600;2023-03-23T06:54:55;15.78;59.24
76577;DHT22;65441;44.748;37.600;2023-03-23T06:57:24;15.85;59.54
76577;DHT22;65441;44.748;37.600;2023-03-23T06:59:54;15.91;58.13
76577;DHT22;65441;44.748;37.600;2023-03-23T07:02:25;16.05;58.09
76577;DHT22;65441;44.748;37.600;2023-03-23T07:04:54;16.19;58.70
76577;DHT22;65441;44.748;37.600;2023-03-23T07:07:26;16.28;58.78
76577;DHT22;65441;44.748;37.600;2023-03-23T07:10:15;16.42;58.56
76577;DHT22;65441;44.748;37.600;2023-03-23T07:12:45;16.49;57.67
76577;DHT22;65441;44.748;37.600;2023-03-23T07:15:16;16.59;59.69
76577;DHT22;65441;44.748;37.600;2023-03-23T07:17:49;16.72;60.47
76577;DHT22;65441;44.748;37.600;2023-03-23T07:20:25;17.10;60.83
76577;DHT22;65441;44.748;37.600;2023-03-23T07:22:55;17.37;55.74
76577;DHT22;65441;44.748;37.600;2023-03-23T07:25:46;17.81;56.48
76577;DHT22;65441;44.748;37.600;2023-03-23T07:28:21;18.07;55.72
76577;DHT22;65441;44.748;37.600;2023-03-23T07:30:53;18.22;54.48
76577;DHT22;65441;44.748;37.600;2023-03-23T07:33:23;18.63;53.82
76577;DHT22;65441;44.748;37.600;2023-03-23T07:35:52;18.71;52.36
76577;DHT22;65441;44.748;37.600;2023-03-23T07:38:21;18.74;53.20
76577;DHT22;65441;44.748;37.600;2023-03-23T07:40:53;18.70;54.52
76577;DHT22;65441;44.748;37.600;2023-03-23T07:43:24;18.95;51.75
76577;DHT22;65441;44.748;37.600;2023-03-23T07:46:01;19.08;52.83
76577;DHT22;65441;44.748;37.600;2023-03-23T07:48:39;19.24;53.21
76577;DHT22;65441;44.748;37.600;2023-03-23T07:51:09;19.69;52.35
76577;DHT22;65441;44.748;37.600;2023-03-23T07:53:38;19.70;51.67
76577;DHT22;65441;44.748;37.600;2023-03-23T07:56:28;19.85;50.68
76577;DHT22;65441;44.748;37.600;2023-03-23T07:59:20;19.84;50.67
76577;DHT22;65441;44.748;37.600;2023-03-23T08:01:51;19.90;51.67
76577;DHT22;65441;44.748;37.600;2023-03-23T08:04:29;20.27;53.20
76577;DHT22;65441;44.748;37.600;2023-03-23T08:07:23;20.17;51.13
76577;DHT22;65441;44.748;37.600;2023-03-23T08:09:51;20.15;50.30
76577;DHT22;65441;44.748;37.600;2023-03-23T08:12:27;20.30;50.52
76577;DHT22;65441;44.748;37.600;2023-03-23T08:15:06;20.00;51.19
76577;DHT22;65441;44.748;37.600;2023-03-23T08:17:50;20.34;49.55
76577;DHT22;65441;44.748;37.600;2023-03-23T08:20:35;20.03;49.38
76577;DHT22;65441;44.748;37.600;2023-03-23T08:23:19;20.11;49.18
76577;DHT22;65441;44.748;37.600;2023-03-23T08:26:07;20.20;49.94
76577;DHT22;65441;44.748;37.600;2023-03-23T08:29:03;20.32;51.01
76577;DHT22;65441;44.748;37.600;2023-03-23T08:31:51;20.21;50.24
76577;DHT22;65441;44.748;37.600;2023-03-23T08:34:45;20.28;48.89
76577;DHT22;65441;44.748;37.600;2023-03-23T08:37:38;19.92;47.99
76577;DHT22;65441;44.748;37.600;2023-03-23T08:40:39;20.35;47.75
76577;DHT22;65441;44.748;37.600;2023-03-23T08:43:27;19.95;48.11
76577;DHT22;65441;44.748;37.600;2023-03-23T08:46:15;19.69;48.70
76577;DHT22;65441;44.748;37.600;2023-03-23T08:49:08;20.03;48.57
76577;DHT22;65441;44.748;37.600;2023-03-23T08:51:57;19.96;47.74
76577;DHT22;65441;44.748;37.600;2023-03-23T08:54:56;19.57;50.57
76577;DHT22;65441;44.748;37.600;2023-03-23T08:57:45;19.29;48.60
76577;DHT22;65441;44.748;37.600;2023-03-23T09:00:29;19.42;49.56
76577;DHT22;65441;44.748;37.600;2023-03-23T09:03:11;19.32;49.27
76577;DHT22;65441;44.748;37.600;2023-03-23T09:06:03;19.50;48.98
76577;DHT22;65441;44.748;37.600;2023-03-23T09:08:54;19.42;48.31
76577;DHT22;65441;44.748;37.600;2023-03-23T09:11:23;19.57;48.60
76577;DHT22;65441;44.748;37.600;2023-03-23T09:13:52;19.74;48.25
76577;DHT22;65441;44.748;37.600;2023-03-23T09:16:21;19.97;47.59
76577;DHT22;65441;44.748;37.600;2023-03-23T09:18:50;19.40;48.95
76577;DHT22;65441;44.748;37.600;2023-03-23T09:21:20;19.01;48.25
76577;DHT22;65441;44.748;37.600;2023-03-23T09:23:49;19.30;49.18
76577;DHT22;65441;44.748;37.600;2023-03-23T09:26:20;19.47;49.10
76577;DHT22;65441;44.748;37.600;2023-03-23T09:28:49;19.13;48.88
76577;DHT22;65441;44.748;37.600;2023-03-23T09:31:19;19.17;50.34
76577;DHT22;65441;44.748;37.600;2023-03-23T09:33:49;19.18;50.89
76577;DHT22;65441;44.748;37.600;2023-03-23T09:36:19;18.83;53.12
76577;DHT22;65441;44.748;37.600;2023-03-23T09:38:49;18.73;54.03
76577;DHT22;65441;44.748;37.600;2023-03-23T09:41:47;18.70;53.37
76577;DHT22;65441;44.748;37.600;2023-03-23T09:44:28;18.61;52.55
76577;DHT22;65441;44.748;37.600;2023-03-23T09:47:06;18.55;53.09
76577;DHT22;65441;44.748;37.600;2023-03-23T09:49:41;18.46;52.88
76577;DHT22;65441;44.748;37.600;2023-03-23T09:52:13;18.53;53.19
76577;DHT22;65441;44.748;37.600;2023-03-23T09:54:44;18.84;52.52
76577;DHT22;65441;44.748;37.600;2023-03-23T09:57:29;19.00;52.62
76577;DHT22;65441;44.748;37.600;2023-03-23T10:00:03;18.79;49.66
76577;DHT22;65441;44.748;37.600;2023-03-23T10:02:47;18.52;51.53
76577;DHT22;65441;44.748;37.600;2023-03-23T10:05:29;18.41;52.22
76577;DHT22;65441;44.748;37.600;2023-03-23T10:08:00;17.91;52.95
76577;DHT22;65441;44.748;37.600;2023-03-23T10:10:36;17.69;53.91
76577;DHT22;65441;44.748;37.600;2023-03-23T10:13:16;17.82;55.29
76577;DHT22;65441;44.748;37.600;2023-03-23T10:15:47;17.87;54.56
76577;DHT22;65441;44.748;37.600;2023-03-23T10:18:29;17.29;54.75
76577;DHT22;65441;44.748;37.600;2023-03-23T10:20:59;17.58;54.18
76577;DHT22;65441;44.748;37.600;2023-03-23T10:23:54;17.84;54.53
76577;DHT22;65441;44.748;37.600;2023-03-23T10:26:33;17.98;54.52
76577;DHT22;65441;44.748;37.600;2023-03-23T10:29:14;18.24;51.69
76577;DHT22;65441;44.748;37.600;2023-03-23T10:31:49;18.07;52.56
76577;DHT22;65441;44.748;37.600;2023-03-23T10:34:23;17.69;55.94
76577;DHT22;65441;44.748;37.600;2023-03-23T10:37:03;17.40;54.95
76577;DHT22;65441;44.748;37.600;2023-03-23T10:39:46;17.85;54.68
76577;DHT22;65441;44.748;37.600;2023-03-23T10:42:27;18.13;55.25
76577;DHT22;65441;44.748;37.600;2023-03-23T10:45:17;18.02;53.26
76577;DHT22;65441;44.748;37.600;2023-03-23T10:47:56;18.09;54.74
76577;DHT22;65441;44.748;37.600;2023-03-23T10:50:29;18.44;51.75
76577;DHT22;65441;44.748;37.600;2023-03-23T10:53:07;18.65;53.49
76577;DHT22;65441;44.748;37.600;2023-03-23T10:55:42;18.76;50.79
76577;DHT22;65441;44.748;37.600;2023-03-23T10:58:30;18.69;52.49
76577;DHT22;65441;44.748;37.600;2023-03-23T11:01:04;18.64;51.01
76577;DHT22;65441;44.748;37.600;2023-03-23T11:03:41;18.83;51.69
76577;DHT22;65441;44.748;37.600;2023-03-23T11:06:22;19.36;50.71
76577;DHT22;65441;44.748;37.600;2023-03-23T11:08:53;19.37;49.92
76577;DHT22;65441;44.748;37.600;2023-03-23T11:11:26;19.59;48.94
76577;DHT22;65441;44.748;37.600;2023-03-23T11:14:00;19.45;49.43
76577;DHT22;65441;44.748;37.600;2023-03-23T11:16:53;19.56;48.56
76577;DHT22;65441;44.748;37.600;2023-03-23T11:20:19;19.24;49.76
76577;DHT22;65441;44.748;37.600;2023-03-23T11:22:48;18.94;50.44
76577;DHT22;65441;44.748;37.600;2023-03-23T11:25:17;18.99;49.73
76577;DHT22;65441;44.748;37.600;2023-03-23T11:27:47;19.02;49.82
76577;DHT22;65441;44.748;37.600;2023-03-23T11:30:24;19.08;50.56
76577;DHT22;65441;44.748;37.600;2023-03-23T11:32:59;18.64;48.79
76577;DHT22;65441;44.748;37.600;2023-03-23T11:35:30;18.69;49.86
76577;DHT22;65441;44.748;37.600;2023-03-23T11:37:59;18.54;52.04
76577;DHT22;65441;44.748;37.600;2023-03-23T11:40:30;18.29;50.72
76577;DHT22;65441;44.748;37.600;2023-03-23T11:43:09;18.09;52.28
76577;DHT22;65441;44.748;37.600;2023-03-23T11:45:39;18.14;53.43
76577;DHT22;65441;44.748;37.600;2023-03-23T11:48:19;17.88;53.28
76577;DHT22;65441;44.748;37.600;2023-03-23T11:50:51;17.53;56.22
76577;DHT22;65441;44.748;37.600;2023-03-23T11:53:32;17.40;55.28
76577;DHT22;65441;44.748;37.600;2023-03-23T11:56:10;17.15;56.68
76577;DHT22;65441;44.748;37.600;2023-03-23T11:58:40;16.87;58.20
76577;DHT22;65441;44.748;37.600;2023-03-23T12:01:16;16.77;57.39
76577;DHT22;65441;44.748;37.600;2023-03-23T12:04:23;16.58;58.84
76577;DHT22;65441;44.748;37.600;2023-03-23T12:07:00;16.32;60.61
76577;DHT22;65441;44.748;37.600;2023-03-23T12:09:40;16.05;60.42
76577;DHT22;65441;44.748;37.600;2023-03-23T12:12:17;16.01;61.44
76577;DHT22;65441;44.748;37.600;2023-03-23T12:14:53;15.80;61.47
76577;DHT22;65441;44.748;37.600;2023-03-23T12:17:35;15.60;62.23
76577;DHT22;65441;44.748;37.600;2023-03-23T12:20:17;15.28;63.53
76577;DHT22;65441;44.748;37.600;2023-03-23T12:23:03;15.07;66.14
76577;DHT22;65441;44.748;37.600;2023-03-23T12:26:04;15.00;65.37
76577;DHT22;65441;44.748;37.600;2023-03-23T12:28:45;14.93;66.13
76577;DHT22;65441;44.748;37.600;2023-03-23T12:31:21;14.62;67.77
76577;DHT22;65441;44.748;37.600;2023-03-23T12:33:58;14.57;69.00
76577;DHT22;65441;44.748;37.600;2023-03-23T12:36:46;14.64;69.92
76577;DHT22;65441;44.748;37.600;2023-03-23T12:42:32;14.55;68.43
76577;DHT22;65441;44.748;37.600;2023-03-23T12:45:18;14.42;69.14
76577;DHT22;65441;44.748;37.600;2023-03-23T12:47:57;14.48;68.93
76577;DHT22;65441;44.748;37.600;2023-03-23T12:50:32;14.70;67.90
76577;DHT22;65441;44.748;37.600;2023-03-23T12:53:09;14.82;68.35
76577;DHT22;65441;44.748;37.600;2023-03-23T12:55:45;14.98;66.66
76577;DHT22;65441;44.748;37.600;2023-03-23T12:58:20;15.04;66.31
76577;DHT22;65441;44.748;37.600;2023-03-23T13:00:52;14.82;69.36
76577;DHT22;65441;44.748;37.600;2023-03-23T13:03:27;15.00;69.26
76577;DHT22;65441;44.748;37.600;2023-03-23T13:06:04;15.18;67.23
76577;DHT22;65441;44.748;37.600;2023-03-23T13:08:37;15.23;66.70
76577;DHT22;65441;44.748;37.600;2023-03-23T13:11:11;15.39;65.76
76577;DHT22;65441;44.748;37.600;2023-03-23T13:13:47;15.62;65.53
76577;DHT22;65441;44.748;37.600;2023-03-23T13:16:26;15.75;64.42
76577;DHT22;65441;44.748;37.600;2023-03-23T13:19:06;15.85;65.06
76577;DHT22;65441;44.748;37.600;2023-03-23T13:21:52;15.85;63.57
76577;DHT22;65441;44.748;37.600;2023-03-23T13:24:27;15.82;63.39
76577;DHT22;65441;44.748;37.600;2023-03-23T13:26:56;15.74;64.14
76577;DHT22;65441;44.748;37.600;2023-03-23T13:29:25;15.73;64.04
76577;DHT22;65441;44.748;37.600;2023-03-23T13:32:05;15.68;62.83
76577;DHT22;65441;44.748;37.600;2023-03-23T13:34:35;15.63;64.69
76577;DHT22;65441;44.748;37.600;2023-03-23T13:37:09;15.92;64.13
76577;DHT22;65441;44.748;37.600;2023-03-23T13:39:49;16.08;64.86
76577;DHT22;65441;44.748;37.600;2023-03-23T13:42:22;15.96;64.48
76577;DHT22;65441;44.748;37.600;2023-03-23T13:45:18;16.18;63.61
76577;DHT22;65441;44.748;37.600;2023-03-23T13:47:48;16.05;65.36
76577;DHT22;65441;44.748;37.600;2023-03-23T13:50:29;15.95;65.49
76577;DHT22;65441;44.748;37.600;2023-03-23T13:53:00;15.96;65.43
76577;DHT22;65441;44.748;37.600;2023-03-23T13:55:48;15.89;66.11
76577;DHT22;65441;44.748;37.600;2023-03-23T13:58:25;15.65;64.85
76577;DHT22;65441;44.748;37.600;2023-03-23T14:01:15;15.34;66.01
76577;DHT22;65441;44.748;37.600;2023-03-23T14:03:48;15.22;65.58
76577;DHT22;65441;44.748;37.600;2023-03-23T14:06:20;15.39;65.59
76577;DHT22;65441;44.748;37.600;2023-03-23T14:09:15;15.19;65.94
76577;DHT22;65441;44.748;37.600;2023-03-23T14:11:49;14.89;67.40
76577;DHT22;65441;44.748;37.600;2023-03-23T14:14:25;15.10;66.65
76577;DHT22;65441;44.748;37.600;2023-03-23T14:17:05;15.09;68.46
76577;DHT22;65441;44.748;37.600;2023-03-23T14:19:38;14.95;66.93
76577;DHT22;65441;44.748;37.600;2023-03-23T14:22:18;15.02;68.45
76577;DHT22;65441;44.748;37.600;2023-03-23T14:24:47;14.95;69.24
76577;DHT22;65441;44.748;37.600;2023-03-23T14:27:21;14.68;68.47
76577;DHT22;65441;44.748;37.600;2023-03-23T14:29:58;14.50;69.54
76577;DHT22;65441;44.748;37.600;2023-03-23T14:32:29;14.41;68.80
76577;DHT22;65441;44.748;37.600;2023-03-23T14:35:04;14.29;71.46
76577;DHT22;65441;44.748;37.600;2023-03-23T14:37:35;14.49;69.46
76577;DHT22;65441;44.748;37.600;2023-03-23T14:40:05;14.77;69.87
76577;DHT22;65441;44.748;37.600;2023-03-23T14:42:38;14.95;69.01
76577;DHT22;65441;44.748;37.600;2023-03-23T14:45:11;15.04;70.48
76577;DHT22;65441;44.748;37.600;2023-03-23T14:47:44;15.21;69.71
76577;DHT22;65441;44.748;37.600;2023-03-23T14:50:28;15.14;68.37
76577;DHT22;65441;44.748;37.600;2023-03-23T14:53:11;15.08;67.72
76577;DHT22;65441;44.748;37.600;2023-03-23T14:55:43;15.21;66.45
76577;DHT22;65441;44.748;37.600;2023-03-23T14:58:19;14.53;68.30
76577;DHT22;65441;44.748;37.600;2023-03-23T15:00:52;14.34;67.66
76577;DHT22;65441;44.748;37.600;2023-03-23T15:03:24;14.14;69.97
76577;DHT22;65441;44.748;37.600;2023-03-23T15:05:56;13.73;70.50
76577;DHT22;65441;44.748;37.600;2023-03-23T15:08:28;13.84;70.45
76577;DHT22;65441;44.748;37.600;2023-03-23T15:11:05;13.74;70.58
76577;DHT22;65441;44.748;37.600;2023-03-23T15:13:37;13.82;70.16
76577;DHT22;65441;44.748;37.600;2023-03-23T15:16:12;13.90;69.37
76577;DHT22;65441;44.748;37.600;2023-03-23T15:18:49;13.66;69.98
76577;DHT22;65441;44.748;37.600;2023-03-23T15:21:25;14.22;70.95
76577;DHT22;65441;44.748;37.600;2023-03-23T15:23:55;14.22;69.00
76577;DHT22;65441;44.748;37.600;2023-03-23T15:26:30;14.01;68.80
76577;DHT22;65441;44.748;37.600;2023-03-23T15:29:19;13.80;70.97
76577;DHT22;65441;44.748;37.600;2023-03-23T15:31:54;13.75;70.81
76577;DHT22;65441;44.748;37.600;2023-03-23T15:34:30;13.58;69.80
76577;DHT22;65441;44.748;37.600;2023-03-23T15:37:05;13.68;70.26
76577;DHT22;65441;44.748;37.600;2023-03-23T15:39:40;13.40;70.59
76577;DHT22;65441;44.748;37.600;2023-03-23T15:42:20;13.30;70.97
76577;DHT22;65441;44.748;37.600;2023-03-23T15:45:22;13.31;72.43
76577;DHT22;65441;44.748;37.600;2023-03-23T15:47:52;13.54;74.47
76577;DHT22;65441;44.748;37.600;2023-03-23T15:50:34;13.65;70.40
76577;DHT22;65441;44.748;37.600;2023-03-23T15:56:07;13.76;73.84
76577;DHT22;65441;44.748;37.600;2023-03-23T15:58:37;14.09;70.33
76577;DHT22;65441;44.748;37.600;2023-03-23T16:01:12;14.44;69.57
76577;DHT22;65441;44.748;37.600;2023-03-23T16:03:45;14.34;68.96
76577;DHT22;65441;44.748;37.600;2023-03-23T16:06:16;14.24;70.42
76577;DHT22;65441;44.748;37.600;2023-03-23T16:08:47;14.42;70.40
76577;DHT22;65441;44.748;37.600;2023-03-23T16:11:17;14.55;70.60
76577;DHT22;65441;44.748;37.600;2023-03-23T16:13:46;14.47;69.53
76577;DHT22;65441;44.748;37.600;2023-03-23T16:16:18;14.39;70.23
76577;DHT22;65441;44.748;37.600;2023-03-23T16:18:49;14.38;70.09
76577;DHT22;65441;44.748;37.600;2023-03-23T16:21:18;14.24;69.04
76577;DHT22;65441;44.748;37.600;2023-03-23T16:23:47;14.15;70.92
76577;DHT22;65441;44.748;37.600;2023-03-23T16:26:16;14.44;71.16